Track Синявский Тимофей

Time Latitude Longitude Accuracy (66% radius in meters) Altitude (meters) Speed (km/hour) Bearing (degrees) Battery (%) GPS flag
07:06:54 57.210906 60.116952 3.2160000801086 286 2.3199999332428 159.19999694824 47 1 delete
07:06:53 57.210927 60.116936 3.2160000801086 285 2.9200000762939 154.30000305176 47 1 delete
07:06:49 57.211033 60.116857 3.2160000801086 286 3.5 157.30000305176 47 1 delete
07:06:44 57.211140 60.116765 3.2160000801086 282 2.3699998855591 165.60000610352 47 1 delete
07:06:40 57.211253 60.116782 3.2160000801086 284 2.9800000190735 195.69999694824 47 1 delete
07:06:37 57.211325 60.116891 3.2160000801086 281 2.8599998950958 207 47 1 delete
07:06:33 57.211433 60.116964 3.2160000801086 281 2.8099999427795 158.89999389648 47 1 delete
07:06:28 57.211483 60.116793 3.2160000801086 280 3.6099998950958 85.599998474121 47 1 delete
07:06:23 57.211486 60.116588 3.2160000801086 279 2.4300000667572 138.30000305176 47 1 delete
07:06:22 57.211509 60.116591 3.2160000801086 279 3.1700000762939 201.69999694824 47 1 delete
07:06:19 57.211597 60.116653 3.2160000801086 278 3.8699998855591 197.5 47 1 delete
07:06:16 57.211698 60.116688 3.2160000801086 280 3.3399999141693 194.30000305176 47 1 delete
07:06:13 57.211798 60.116744 3.2160000801086 280 4.0100002288818 208.80000305176 47 1 delete
07:06:12 57.211833 60.116780 3.2160000801086 283 3.6300001144409 213.80000305176 47 1 delete
07:06:10 57.211888 60.116854 3.2160000801086 283 3.3199999332428 219 47 1 delete
07:06:07 57.211967 60.116962 4.2880001068115 283 3.3599998950958 209.60000610352 47 1 delete
07:06:04 57.212054 60.117069 4.2880001068115 285 3.9400000572205 228.5 47 1 delete
07:06:02 57.212095 60.117176 3.2160000801086 287 3.1700000762939 242 47 1 delete
07:06:01 57.212106 60.117226 3.2160000801086 286 3.4000000953674 239.19999694824 47 1 delete
07:05:57 57.212154 60.117388 3.2160000801086 284 2.289999961853 220.5 47 1 delete
07:05:53 57.212237 60.117496 3.2160000801086 283 2.6600000858307 192.39999389648 47 1 delete
07:05:51 57.212287 60.117470 3.2160000801086 283 2.6600000858307 153.80000305176 47 1 delete
07:05:49 57.212342 60.117436 3.2160000801086 281 3.2300000190735 159.19999694824 47 1 delete
07:05:46 57.212423 60.117355 3.2160000801086 281 3.4800000190735 136.89999389648 47 1 delete
07:05:43 57.212506 60.117247 3.2160000801086 282 3.75 156.5 47 1 delete
07:05:41 57.212578 60.117206 3.2160000801086 283 3.7799999713898 155.80000305176 47 1 delete
07:05:40 57.212615 60.117181 3.2160000801086 284 3.5299999713898 149.69999694824 47 1 delete
07:05:37 57.212708 60.117118 3.2160000801086 287 2.4500000476837 153.60000610352 47 1 delete
07:05:34 57.212805 60.117157 4.2880001068115 287 2.4700000286102 194.39999389648 47 1 delete
07:05:30 57.212860 60.117324 4.2880001068115 288 4.2600002288818 272.29998779297 47 1 delete
07:05:27 57.212843 60.117569 4.2880001068115 290 4.25 273.60000610352 47 1 delete
07:05:23 57.212831 60.117804 3.2160000801086 286 1.9800000190735 266.70001220703 47 1 delete
07:05:20 57.212846 60.117937 3.2160000801086 284 2.1400001049042 238.10000610352 47 1 delete
07:05:18 57.212864 60.117984 3.2160000801086 282 2.3699998855591 240.69999694824 47 1 delete
07:05:14 57.212943 60.118083 3.2160000801086 276 2.289999961853 204 47 1 delete
07:05:11 57.213039 60.118123 3.2160000801086 275 3.4400000572205 197.19999694824 47 1 delete
07:05:10 57.213079 60.118140 3.2160000801086 279 2.9000000953674 193.39999389648 47 1 delete
07:05:06 57.213167 60.118131 3.2160000801086 280 2.2000000476837 123.30000305176 47 1 delete
07:05:02 57.213221 60.117964 4.2880001068115 277 1.9800000190735 118.80000305176 47 1 delete
07:05:00 57.213241 60.117906 3.2160000801086 274 2.3099999427795 123.59999847412 47 1 delete
07:04:57 57.213280 60.117810 3.2160000801086 274 2.2000000476837 115.69999694824 47 1 delete
07:04:50 57.213349 60.117670 3.2160000801086 276 0 0 47 1 delete
07:04:49 57.213352 60.117671 3.2160000801086 276 0 0 47 1 delete
07:04:43 57.213408 60.117544 4.2880001068115 275 3.2699999809265 121 47 1 delete
07:04:39 57.213446 60.117401 3.2160000801086 270 1.7699999809265 125.5 47 1 delete
07:04:38 57.213458 60.117380 3.2160000801086 270 1.789999961853 126.19999694824 47 1 delete
07:04:34 57.213495 60.117220 4.2880001068115 267 3.5 59.700000762939 47 1 delete
07:04:31 57.213469 60.117053 4.2880001068115 266 2.9000000953674 62.200000762939 47 1 delete
07:04:28 57.213418 60.116950 3.2160000801086 266 2.789999961853 359.39999389648 47 1 delete
07:04:27 57.213393 60.116951 3.2160000801086 265 2.8199999332428 359.79998779297 47 1 delete